Current Weather

Diu Aprt

Diu Aprt, India (VADU)

Report from: Saturday, June 22, 2024 6:30 AM UTC
Current time: Saturday, June 22, 2024 7:00 AM UTC

Nearby weather – Weather history – Daily summaries
Weather forecast

Present weatherHaze
Temperature34.0°C (93.2°F)
Heat index45.3°C (113.6°F)
Dew point27.0°C (80.6°F)
Winds 10 kts (5.1 m/s, 11.5 mph) West-Southwest (250°)
Wind gusts 20 kts (10.3 m/s, 23 mph)
Visibility3.1 mi. (5 km)
Clouds Few clouds 1,800 ft. (549 m)
Scattered clouds 2,500 ft. (762 m)
Altimeter29.56 in.Hg (1001 mB)
Relative humidity67 %
Density altitude3,046 ft. (928 m)
Remarks No significant changes expected in the next two hours
Flight conditions Marginal Visual Meteorological Conditions
Raw dataVADU 220630Z 25010G20KT 5000 HZ FEW018 SCT025 34/27 Q1001 NOSIG
An error has occurred. This application may no longer respond until reloaded. Reload 🗙